Time;durP1;ratioP1;P1;durP2;ratioP2;P2;SDS_P1;SDS_P2;PMS_P1;PMS_P2;Temp;Humidity;BMP_temperature;BMP_pressure;BME280_temperature;BME280_humidity;BME280_pressure;Samples;Min_cycle;Max_cycle;Signal;HPM_P1;HPM_P2
2021/05/08 00:00:54;;;;;;;9.48;3.20;;;4.40;95.80;;;;;;5095352;28;20147;-67
2021/05/08 00:03:20;;;;;;;5.57;3.17;;;4.30;95.80;;;;;;5096550;28;20067;-68
2021/05/08 00:05:47;;;;;;;4.63;2.53;;;4.30;95.80;;;;;;5100210;28;20082;-68
2021/05/08 00:08:15;;;;;;;5.20;2.70;;;4.30;95.90;;;;;;5091063;28;20344;-68
2021/05/08 00:10:41;;;;;;;8.63;2.80;;;4.30;95.90;;;;;;5097077;28;20028;-68
2021/05/08 00:13:07;;;;;;;3.85;2.80;;;4.20;95.90;;;;;;5094838;28;20039;-68
2021/05/08 00:15:33;;;;;;;6.38;2.80;;;4.20;95.90;;;;;;5101080;28;20411;-68
2021/05/08 00:17:59;;;;;;;8.48;3.03;;;4.20;95.80;;;;;;5092539;28;20032;-68
2021/05/08 00:20:32;;;;;;;4.80;3.15;;;4.10;95.80;;;;;;5092938;28;20110;-68
2021/05/08 00:22:58;;;;;;;4.43;3.10;;;4.10;95.80;;;;;;5094621;28;20531;-68
2021/05/08 00:25:23;;;;;;;6.22;3.45;;;4.10;95.80;;;;;;5096040;28;20103;-68
2021/05/08 00:27:49;;;;;;;5.82;2.72;;;4.00;95.90;;;;;;5103120;28;20109;-67
2021/05/08 00:30:15;;;;;;;6.00;3.10;;;4.00;96.00;;;;;;5092527;28;20101;-67
2021/05/08 00:32:43;;;;;;;5.32;3.15;;;4.00;96.00;;;;;;5105237;28;20376;-67
2021/05/08 00:35:09;;;;;;;5.13;2.92;;;3.90;96.10;;;;;;5094052;28;20060;-67
2021/05/08 00:37:34;;;;;;;5.65;3.15;;;3.80;96.10;;;;;;5104529;28;20032;-67
2021/05/08 00:40:00;;;;;;;4.97;2.70;;;3.90;96.10;;;;;;5094576;28;20035;-67
2021/05/08 00:42:27;;;;;;;6.40;2.40;;;3.80;96.10;;;;;;5103715;28;20043;-67
2021/05/08 00:44:53;;;;;;;5.07;3.55;;;3.80;96.10;;;;;;5093476;28;20051;-67
2021/05/08 00:47:19;;;;;;;5.88;2.80;;;3.70;96.10;;;;;;5099911;28;20094;-67
2021/05/08 00:49:46;;;;;;;5.50;3.53;;;3.70;96.10;;;;;;5098129;28;20399;-67
2021/05/08 00:52:15;;;;;;;5.82;3.80;;;3.70;96.20;;;;;;5094236;28;20038;-67
2021/05/08 00:54:42;;;;;;;5.78;2.97;;;3.60;96.20;;;;;;5090501;28;20074;-67
2021/05/08 00:57:08;;;;;;;6.80;3.92;;;3.60;96.20;;;;;;5105029;28;20039;-67
2021/05/08 00:59:35;;;;;;;6.40;3.90;;;3.60;96.20;;;;;;5094976;28;20039;-68
2021/05/08 01:02:01;;;;;;;6.50;3.22;;;3.60;96.30;;;;;;5100434;28;20526;-67
2021/05/08 01:04:31;;;;;;;6.50;3.30;;;3.50;96.30;;;;;;5100808;28;20082;-67
2021/05/08 01:06:59;;;;;;;5.60;3.30;;;3.50;96.30;;;;;;5094962;28;20059;-67
2021/05/08 01:09:28;;;;;;;5.03;3.40;;;3.50;96.30;;;;;;5100102;28;20111;-67
2021/05/08 01:11:55;;;;;;;6.00;4.00;;;3.50;96.40;;;;;;5092899;28;20036;-68
2021/05/08 01:14:22;;;;;;;8.25;3.72;;;3.40;96.40;;;;;;5085925;28;20047;-67
2021/05/08 01:16:49;;;;;;;5.45;3.90;;;3.40;96.40;;;;;;5091801;28;20058;-67
2021/05/08 01:19:17;;;;;;;5.78;3.75;;;3.40;96.50;;;;;;5100418;28;20499;-67
2021/05/08 01:21:44;;;;;;;6.40;3.80;;;3.40;96.60;;;;;;5092125;28;20044;-67
2021/05/08 01:24:10;;;;;;;7.88;3.75;;;3.30;96.50;;;;;;5100934;28;20044;-67
2021/05/08 01:26:37;;;;;;;7.68;3.95;;;3.30;96.60;;;;;;5095931;28;20032;-67
2021/05/08 01:29:04;;;;;;;8.43;4.63;;;3.30;96.60;;;;;;5100258;28;20046;-67
2021/05/08 01:31:30;;;;;;;6.50;3.65;;;3.20;96.70;;;;;;5091338;28;20476;-67
2021/05/08 01:33:56;;;;;;;9.38;5.18;;;3.20;96.70;;;;;;5099569;28;20395;-67
2021/05/08 01:36:22;;;;;;;7.93;4.65;;;3.20;96.80;;;;;;5100007;28;20051;-67
2021/05/08 01:38:48;;;;;;;9.75;4.80;;;3.20;96.90;;;;;;5098067;28;20098;-67
2021/05/08 01:41:14;;;;;;;7.68;5.35;;;3.20;97.00;;;;;;5092573;28;20503;-67
2021/05/08 01:43:40;;;;;;;8.63;5.10;;;3.10;97.40;;;;;;5101215;28;20040;-67
2021/05/08 01:46:06;;;;;;;9.15;5.32;;;3.10;97.30;;;;;;5096796;28;20032;-67
2021/05/08 01:48:32;;;;;;;6.80;5.03;;;3.10;97.40;;;;;;5094388;28;20103;-67
2021/05/08 01:50:58;;;;;;;9.75;4.65;;;3.10;97.50;;;;;;5096386;28;20043;-67
2021/05/08 01:53:24;;;;;;;12.10;5.07;;;3.00;97.50;;;;;;5098744;28;20674;-67
2021/05/08 01:55:50;;;;;;;7.60;4.57;;;3.00;97.60;;;;;;5099293;28;20035;-67
2021/05/08 01:58:16;;;;;;;8.18;5.25;;;2.90;97.60;;;;;;5093714;28;20044;-65
2021/05/08 02:00:45;;;;;;;9.07;5.05;;;2.90;97.70;;;;;;5098570;28;20420;-65
2021/05/08 02:03:11;;;;;;;5.00;4.40;;;2.90;97.80;;;;;;5096000;28;20191;-65
2021/05/08 02:05:39;;;;;;;9.45;5.28;;;2.90;97.80;;;;;;5098567;28;20043;-67
2021/05/08 02:08:06;;;;;;;9.55;5.50;;;2.80;97.90;;;;;;5092787;28;20028;-66
2021/05/08 02:10:34;;;;;;;6.43;5.63;;;2.80;98.00;;;;;;5096046;28;20040;-66
2021/05/08 02:13:01;;;;;;;8.60;5.82;;;2.80;98.00;;;;;;5093721;28;20039;-66
2021/05/08 02:15:27;;;;;;;8.32;6.13;;;2.70;98.10;;;;;;5094004;28;20044;-66
2021/05/08 02:17:54;;;;;;;8.10;5.65;;;2.70;98.10;;;;;;5089170;28;20893;-66
2021/05/08 02:20:31;;;;;;;10.55;6.43;;;2.70;98.20;;;;;;5095994;28;20036;-66
2021/05/08 02:22:58;;;;;;;8.38;6.10;;;2.70;98.20;;;;;;5092892;28;20479;-66
2021/05/08 02:25:25;;;;;;;10.38;6.45;;;2.70;98.30;;;;;;5099148;28;20520;-66
2021/05/08 02:27:51;;;;;;;6.95;6.25;;;2.70;98.30;;;;;;5098594;28;20044;-66
2021/05/08 02:30:38;;;;;;;9.60;6.20;;;2.70;98.40;;;;;;5091958;28;20028;-66
2021/05/08 02:33:04;;;;;;;7.95;6.47;;;2.70;98.40;;;;;;5099460;27;20035;-67
2021/05/08 02:35:31;;;;;;;11.90;6.55;;;2.60;98.30;;;;;;5097098;28;20419;-66
2021/05/08 02:37:57;;;;;;;8.50;5.35;;;2.60;98.40;;;;;;5096478;28;20531;-66
2021/05/08 02:40:29;;;;;;;7.50;5.43;;;2.60;98.50;;;;;;5093307;28;20105;-67
2021/05/08 02:42:59;;;;;;;10.40;7.10;;;2.60;98.50;;;;;;5100533;28;20036;-67
2021/05/08 02:45:25;;;;;;;8.80;6.75;;;2.60;98.50;;;;;;5098552;27;20482;-66
2021/05/08 02:47:52;;;;;;;9.25;7.30;;;2.60;98.50;;;;;;5099730;28;20056;-66
2021/05/08 02:50:20;;;;;;;15.07;8.07;;;2.60;98.50;;;;;;5098044;28;20531;-66
2021/05/08 02:52:46;;;;;;;9.25;6.63;;;2.60;98.60;;;;;;5100851;28;20089;-66
2021/05/08 02:55:13;;;;;;;12.57;6.82;;;2.60;98.60;;;;;;5094151;28;20382;-67
2021/05/08 02:57:39;;;;;;;9.27;7.25;;;2.60;98.70;;;;;;5101910;27;20491;-67
2021/05/08 03:00:10;;;;;;;9.88;6.20;;;2.60;98.60;;;;;;5092420;28;20042;-66
2021/05/08 03:02:39;;;;;;;13.48;7.90;;;2.60;98.60;;;;;;5097963;28;20096;-66
2021/05/08 03:05:06;;;;;;;13.88;8.63;;;2.60;98.60;;;;;;5096858;28;20043;-67
2021/05/08 03:07:32;;;;;;;13.98;8.73;;;2.50;98.60;;;;;;5098056;28;20029;-66
2021/05/08 03:09:58;;;;;;;7.97;6.65;;;2.50;98.60;;;;;;5094790;28;20032;-66
2021/05/08 03:12:24;;;;;;;12.85;8.77;;;2.50;98.70;;;;;;5102288;28;20399;-66
2021/05/08 03:14:49;;;;;;;13.05;8.82;;;2.50;98.70;;;;;;5092178;28;20455;-67
2021/05/08 03:17:15;;;;;;;11.50;9.00;;;2.50;98.70;;;;;;5096146;27;20046;-67
2021/05/08 03:19:41;;;;;;;10.23;9.18;;;2.50;98.80;;;;;;5101372;28;20476;-66
2021/05/08 03:22:07;;;;;;;16.38;8.90;;;2.50;98.80;;;;;;5093523;28;20050;-67
2021/05/08 03:24:35;;;;;;;14.48;9.02;;;2.40;98.80;;;;;;5101089;28;20042;-67
2021/05/08 03:27:01;;;;;;;14.48;9.25;;;2.40;98.90;;;;;;5090131;28;20062;-67
2021/05/08 03:29:30;;;;;;;11.18;9.23;;;2.40;98.90;;;;;;5099827;28;20040;-66
2021/05/08 03:31:56;;;;;;;14.55;10.80;;;2.40;98.90;;;;;;5093997;28;20088;-66
2021/05/08 03:34:22;;;;;;;14.35;10.48;;;2.30;99.00;;;;;;5097905;28;20218;-67
2021/05/08 03:36:48;;;;;;;14.43;10.60;;;2.30;99.00;;;;;;5093813;28;20549;-67
2021/05/08 03:39:14;;;;;;;15.68;11.77;;;2.30;99.10;;;;;;5097602;28;20032;-67
2021/05/08 03:41:44;;;;;;;13.38;10.43;;;2.30;99.20;;;;;;5091179;28;20032;-67
2021/05/08 03:44:10;;;;;;;12.50;10.40;;;2.30;99.20;;;;;;5095024;28;20039;-67
2021/05/08 03:46:36;;;;;;;16.42;12.02;;;2.40;99.20;;;;;;5071969;28;20415;-67
2021/05/08 03:49:02;;;;;;;14.13;10.57;;;2.40;99.20;;;;;;5084315;28;20122;-67
2021/05/08 03:51:28;;;;;;;16.40;12.88;;;2.40;99.20;;;;;;5095164;28;20081;-67
2021/05/08 03:53:54;;;;;;;19.30;13.10;;;2.40;99.20;;;;;;5105821;28;20093;-67
2021/05/08 03:56:22;;;;;;;14.88;12.20;;;2.40;99.30;;;;;;5095875;28;20127;-67
2021/05/08 03:58:48;;;;;;;15.48;11.70;;;2.50;99.30;;;;;;5097932;28;20504;-66
2021/05/08 04:01:14;;;;;;;17.00;11.98;;;2.40;99.30;;;;;;5101009;28;20130;-66
2021/05/08 04:03:40;;;;;;;14.18;11.40;;;2.40;99.30;;;;;;5096148;28;20536;-66
2021/05/08 04:06:06;;;;;;;14.25;10.82;;;2.50;99.30;;;;;;5102806;28;20142;-66
2021/05/08 04:08:33;;;;;;;17.48;11.68;;;2.40;99.30;;;;;;5089798;28;20035;-66
2021/05/08 04:10:59;;;;;;;16.27;11.93;;;2.40;99.30;;;;;;5097797;28;20276;-66
2021/05/08 04:13:25;;;;;;;16.98;12.85;;;2.50;99.30;;;;;;5097305;28;20048;-66
2021/05/08 04:15:51;;;;;;;15.27;12.57;;;2.50;99.30;;;;;;5100957;28;20059;-66
2021/05/08 04:18:17;;;;;;;14.10;11.80;;;2.50;99.40;;;;;;5091823;28;20498;-66
2021/05/08 04:20:47;;;;;;;15.95;12.45;;;2.50;99.40;;;;;;5104872;28;20362;-66
2021/05/08 04:23:13;;;;;;;12.60;11.10;;;2.60;99.40;;;;;;5097648;28;20536;-66
2021/05/08 04:25:40;;;;;;;13.15;11.63;;;2.50;99.40;;;;;;5095772;28;20040;-66
2021/05/08 04:28:12;;;;;;;16.25;11.10;;;2.60;99.40;;;;;;5096042;28;20067;-66
2021/05/08 04:30:38;;;;;;;14.88;11.95;;;2.60;99.40;;;;;;5101298;28;20039;-66
2021/05/08 04:33:04;;;;;;;15.48;12.20;;;2.60;99.30;;;;;;5097805;28;20401;-66
2021/05/08 04:35:33;;;;;;;16.10;12.90;;;2.70;99.30;;;;;;5079286;28;20039;-66
2021/05/08 04:38:05;;;;;;;15.38;12.32;;;2.70;99.30;;;;;;5093400;28;20061;-66
2021/05/08 04:40:31;;;;;;;18.00;12.18;;;2.70;99.30;;;;;;5097404;28;20047;-66
2021/05/08 04:42:58;;;;;;;17.85;13.00;;;2.70;99.60;;;;;;5098940;28;20055;-66
2021/05/08 04:45:25;;;;;;;15.18;12.65;;;2.80;99.40;;;;;;5094815;28;20395;-66
2021/05/08 04:47:56;;;;;;;15.38;12.35;;;2.80;99.30;;;;;;5090238;28;20052;-66
2021/05/08 04:50:25;;;;;;;17.88;13.93;;;2.90;99.50;;;;;;5096138;28;20074;-66
2021/05/08 04:52:52;;;;;;;17.75;13.10;;;3.00;99.50;;;;;;5100637;28;20046;-66
2021/05/08 04:55:18;;;;;;;17.33;13.82;;;3.10;99.50;;;;;;5091102;28;20039;-66
2021/05/08 04:57:44;;;;;;;17.98;14.57;;;3.20;99.50;;;;;;5105679;28;20065;-66
2021/05/08 05:00:12;;;;;;;24.83;15.43;;;3.30;99.50;;;;;;5072924;28;20098;-66
2021/05/08 05:02:40;;;;;;;21.23;14.38;;;3.40;99.60;;;;;;5099497;28;20032;-66
2021/05/08 05:05:08;;;;;;;15.57;13.90;;;3.50;99.60;;;;;;5092479;28;20388;-67
2021/05/08 05:07:35;;;;;;;21.50;14.55;;;3.60;99.60;;;;;;5102358;28;20032;-66
2021/05/08 05:10:00;;;;;;;16.05;13.50;;;3.80;99.60;;;;;;5095310;28;20047;-67
2021/05/08 05:12:32;;;;;;;15.00;13.25;;;3.90;99.60;;;;;;5104908;28;20058;-66
2021/05/08 05:14:58;;;;;;;14.18;12.52;;;4.10;99.90;;;;;;5101794;28;20068;-66
2021/05/08 05:17:23;;;;;;;18.70;13.95;;;4.20;99.60;;;;;;5104151;28;20067;-66
2021/05/08 05:19:49;;;;;;;17.25;13.65;;;4.40;99.50;;;;;;5094704;28;20039;-66
2021/05/08 05:22:16;;;;;;;14.48;12.50;;;4.50;99.30;;;;;;5102139;28;20032;-66
2021/05/08 05:24:42;;;;;;;16.67;11.60;;;4.70;99.30;;;;;;5103796;28;20043;-66
2021/05/08 05:27:08;;;;;;;13.45;12.02;;;4.80;99.10;;;;;;5091161;28;20172;-66
2021/05/08 05:29:33;;;;;;;16.17;12.00;;;5.00;98.90;;;;;;5106923;28;20114;-66
2021/05/08 05:31:59;;;;;;;15.77;11.48;;;5.10;98.80;;;;;;5100126;28;20059;-66
2021/05/08 05:34:25;;;;;;;13.40;12.07;;;5.20;98.70;;;;;;5103901;28;20036;-66
2021/05/08 05:36:51;;;;;;;15.82;12.20;;;5.30;98.60;;;;;;5099324;28;20039;-66
2021/05/08 05:39:18;;;;;;;18.33;10.50;;;5.50;98.60;;;;;;5100268;27;20121;-67
2021/05/08 05:41:44;;;;;;;12.07;10.85;;;5.70;98.50;;;;;;5101032;28;20483;-67
2021/05/08 05:44:13;;;;;;;12.93;10.20;;;5.90;98.50;;;;;;5106827;28;20418;-67
2021/05/08 05:46:39;;;;;;;14.70;11.27;;;6.10;98.30;;;;;;5077405;28;20131;-67
2021/05/08 05:49:05;;;;;;;11.35;10.15;;;6.20;97.70;;;;;;5101154;28;20036;-67
2021/05/08 05:51:31;;;;;;;10.60;9.02;;;6.40;97.60;;;;;;5096809;28;20126;-67
2021/05/08 05:53:57;;;;;;;13.52;9.85;;;6.60;97.60;;;;;;5101224;28;20044;-67
2021/05/08 05:56:26;;;;;;;11.63;9.45;;;6.70;97.20;;;;;;5081309;28;20062;-67
2021/05/08 05:58:53;;;;;;;12.20;9.75;;;6.80;97.00;;;;;;5101287;28;20038;-67
2021/05/08 06:01:19;;;;;;;10.63;9.07;;;6.90;96.80;;;;;;5095292;28;20446;-67
2021/05/08 06:03:45;;;;;;;14.27;9.15;;;7.10;96.70;;;;;;5103615;28;20036;-67
2021/05/08 06:06:11;;;;;;;12.43;8.82;;;7.20;96.20;;;;;;5099082;28;20036;-67
2021/05/08 06:08:37;;;;;;;15.60;9.35;;;7.30;95.90;;;;;;5098071;28;20036;-67
2021/05/08 06:11:04;;;;;;;10.98;9.35;;;7.40;95.40;;;;;;5103198;28;20123;-67
2021/05/08 06:13:32;;;;;;;11.35;8.55;;;7.60;95.60;;;;;;5099918;28;20467;-67
2021/05/08 06:15:59;;;;;;;9.23;8.32;;;7.60;95.40;;;;;;5101731;28;20125;-67
2021/05/08 06:18:25;;;;;;;12.70;9.20;;;7.70;95.10;;;;;;5100334;28;20080;-67
2021/05/08 06:20:52;;;;;;;11.25;8.65;;;7.80;94.90;;;;;;5098623;28;20111;-68
2021/05/08 06:23:18;;;;;;;9.70;8.43;;;8.00;94.80;;;;;;5095941;28;20038;-67
2021/05/08 06:25:44;;;;;;;12.23;9.30;;;8.20;94.20;;;;;;5099580;28;20082;-68
2021/05/08 06:28:11;;;;;;;11.18;9.60;;;8.40;94.30;;;;;;5097975;28;20048;-67
2021/05/08 06:30:37;;;;;;;12.93;10.10;;;8.60;94.20;;;;;;5105901;28;20032;-67
2021/05/08 06:33:03;;;;;;;12.43;10.35;;;8.80;93.70;;;;;;5095503;28;20036;-67
2021/05/08 06:35:29;;;;;;;12.63;10.13;;;8.90;93.10;;;;;;5107696;28;20406;-67
2021/05/08 06:37:56;;;;;;;12.95;11.05;;;9.10;92.60;;;;;;5093560;28;20051;-67
2021/05/08 06:40:22;;;;;;;14.45;11.15;;;9.20;92.60;;;;;;5098319;28;20125;-68
2021/05/08 06:42:48;;;;;;;14.05;11.75;;;9.40;92.40;;;;;;5095651;28;20052;-72
2021/05/08 06:45:13;;;;;;;12.20;10.98;;;9.50;91.40;;;;;;5102390;28;20054;-68
2021/05/08 06:47:39;;;;;;;13.88;10.85;;;9.60;91.80;;;;;;5094072;28;20123;-68
2021/05/08 06:50:06;;;;;;;11.80;10.60;;;9.70;90.50;;;;;;5099815;28;20118;-68
2021/05/08 06:52:32;;;;;;;13.25;10.70;;;9.80;90.70;;;;;;5104171;28;20039;-68
2021/05/08 06:54:59;;;;;;;13.20;11.43;;;9.90;90.20;;;;;;5093988;28;20138;-68
2021/05/08 06:57:25;;;;;;;12.07;10.65;;;10.00;89.00;;;;;;5098513;28;20555;-68
2021/05/08 06:59:51;;;;;;;12.13;10.73;;;10.10;90.00;;;;;;5100094;28;20130;-68
2021/05/08 07:02:17;;;;;;;13.57;10.57;;;10.20;89.70;;;;;;5101888;28;20039;-68
2021/05/08 07:04:43;;;;;;;11.40;10.15;;;10.30;87.70;;;;;;5095540;28;20040;-68
2021/05/08 07:07:09;;;;;;;11.40;10.15;;;10.30;87.30;;;;;;5099159;28;20125;-67
2021/05/08 07:09:34;;;;;;;10.48;9.35;;;10.40;88.40;;;;;;5092077;28;20694;-68
2021/05/08 07:12:00;;;;;;;11.65;9.77;;;10.50;86.90;;;;;;5102367;28;20040;-68
2021/05/08 07:14:26;;;;;;;12.10;10.80;;;10.50;86.90;;;;;;5097442;28;20050;-68
2021/05/08 07:16:52;;;;;;;14.93;10.23;;;10.60;86.00;;;;;;5101269;28;20459;-69
2021/05/08 07:19:18;;;;;;;13.95;9.70;;;10.70;86.20;;;;;;5094340;28;20038;-69
2021/05/08 07:21:45;;;;;;;11.32;10.02;;;10.80;85.60;;;;;;5101998;28;20055;-69
2021/05/08 07:24:11;;;;;;;11.68;9.90;;;10.90;85.00;;;;;;5098172;28;20048;-69
2021/05/08 07:26:37;;;;;;;12.57;10.23;;;10.90;84.30;;;;;;5099410;28;20403;-68
2021/05/08 07:29:03;;;;;;;13.00;9.75;;;11.00;84.30;;;;;;5102865;28;20044;-68
2021/05/08 07:31:29;;;;;;;14.23;10.18;;;11.00;84.60;;;;;;5092510;28;20042;-68
2021/05/08 07:33:54;;;;;;;11.90;10.20;;;11.10;84.10;;;;;;5100987;28;20425;-68
2021/05/08 07:36:20;;;;;;;12.75;11.00;;;11.10;82.10;;;;;;5099640;28;20108;-68
2021/05/08 07:38:46;;;;;;;12.07;9.65;;;11.10;81.90;;;;;;5101787;28;20044;-68
2021/05/08 07:41:13;;;;;;;11.50;10.30;;;11.10;82.00;;;;;;5093771;28;20112;-68
2021/05/08 07:43:39;;;;;;;11.48;9.95;;;11.20;81.40;;;;;;5101669;28;20050;-68
2021/05/08 07:46:05;;;;;;;15.00;10.93;;;11.20;81.40;;;;;;5090497;28;20043;-69
2021/05/08 07:48:31;;;;;;;11.80;10.32;;;11.30;81.60;;;;;;5099744;28;20061;-69
2021/05/08 07:50:58;;;;;;;11.57;10.07;;;11.40;81.40;;;;;;5096058;28;20035;-68
2021/05/08 07:53:24;;;;;;;14.10;10.65;;;11.40;80.20;;;;;;5104375;28;20036;-69
2021/05/08 07:55:49;;;;;;;12.25;9.70;;;11.50;80.50;;;;;;5096621;28;20043;-68
2021/05/08 07:58:15;;;;;;;13.20;10.35;;;11.60;79.80;;;;;;5104061;28;20451;-68
2021/05/08 08:00:41;;;;;;;14.65;11.07;;;11.60;78.80;;;;;;5102450;28;20487;-68
2021/05/08 08:03:20;;;;;;;12.77;9.50;;;11.70;79.30;;;;;;5100700;28;20036;-68
2021/05/08 08:05:46;;;;;;;12.50;10.00;;;11.80;77.60;;;;;;5099826;28;20042;-68
2021/05/08 08:08:11;;;;;;;12.50;9.43;;;11.90;76.00;;;;;;5093705;28;20471;-68
2021/05/08 08:10:37;;;;;;;12.30;9.77;;;12.00;75.40;;;;;;5102390;28;20035;-68
2021/05/08 08:13:03;;;;;;;13.57;11.20;;;12.00;75.50;;;;;;5100647;28;20498;-68
2021/05/08 08:15:29;;;;;;;15.35;10.95;;;12.10;75.40;;;;;;5104165;28;20351;-68
2021/05/08 08:17:55;;;;;;;17.50;11.75;;;12.20;75.70;;;;;;5094672;28;20039;-68
2021/05/08 08:20:22;;;;;;;15.30;11.32;;;12.20;74.40;;;;;;5103405;28;20411;-68
2021/05/08 08:22:51;;;;;;;18.05;11.00;;;12.30;74.50;;;;;;5095703;28;20185;-68
2021/05/08 08:25:17;;;;;;;14.13;10.20;;;12.30;73.50;;;;;;5099125;28;20036;-68
2021/05/08 08:27:43;;;;;;;14.15;9.90;;;12.30;72.30;;;;;;5095901;28;20746;-69
2021/05/08 08:30:11;;;;;;;14.50;10.35;;;12.20;71.40;;;;;;5102841;28;20468;-68
2021/05/08 08:32:37;;;;;;;15.32;9.90;;;12.10;69.70;;;;;;5097235;28;20081;-68
2021/05/08 08:35:04;;;;;;;12.93;10.27;;;12.10;70.90;;;;;;5098923;28;20039;-68
2021/05/08 08:37:29;;;;;;;13.63;11.05;;;12.20;71.20;;;;;;5098542;28;20708;-68
2021/05/08 08:39:55;;;;;;;15.68;11.18;;;12.20;70.20;;;;;;5097588;28;20055;-68
2021/05/08 08:42:21;;;;;;;14.32;10.77;;;12.30;70.60;;;;;;5080345;28;20051;-68
2021/05/08 08:44:47;;;;;;;16.60;11.80;;;12.40;69.70;;;;;;5100891;28;20088;-68
2021/05/08 08:47:29;;;;;;;11.93;10.57;;;12.40;69.10;;;;;;5102163;28;20055;-68
2021/05/08 08:50:04;;;;;;;13.75;10.70;;;12.50;69.30;;;;;;5099823;28;20036;-68
2021/05/08 08:52:30;;;;;;;14.20;12.10;;;12.60;67.20;;;;;;5102224;28;20035;-68
2021/05/08 08:54:57;;;;;;;15.65;12.10;;;12.60;68.20;;;;;;5097594;28;20461;-68
2021/05/08 08:57:30;;;;;;;14.70;12.02;;;12.60;67.80;;;;;;5105538;28;20402;-67
2021/05/08 08:59:59;;;;;;;13.98;11.75;;;12.70;67.30;;;;;;5098887;28;20104;-68
2021/05/08 09:02:26;;;;;;;14.27;11.68;;;12.90;66.30;;;;;;5102265;28;20437;-69
2021/05/08 09:04:53;;;;;;;12.20;10.98;;;13.00;67.20;;;;;;5087872;28;20051;-68
2021/05/08 09:07:21;;;;;;;13.90;12.23;;;13.10;67.50;;;;;;5101432;28;20036;-68
2021/05/08 09:09:50;;;;;;;15.30;12.98;;;13.10;65.80;;;;;;5094696;28;20127;-68
2021/05/08 09:12:17;;;;;;;13.55;11.10;;;13.20;65.90;;;;;;5102952;28;20032;-68
2021/05/08 09:14:48;;;;;;;13.55;11.35;;;13.20;66.60;;;;;;5099959;28;20040;-68
2021/05/08 09:17:16;;;;;;;12.82;10.80;;;13.30;66.00;;;;;;5101059;28;20044;-68
2021/05/08 09:19:45;;;;;;;13.60;10.73;;;13.20;65.50;;;;;;5097175;28;20032;-68
2021/05/08 09:22:40;;;;;;;13.77;12.27;;;13.20;65.60;;;;;;5099765;28;20036;-67
2021/05/08 09:25:19;;;;;;;13.20;10.80;;;13.30;65.70;;;;;;5091188;28;20040;-68
2021/05/08 09:27:52;;;;;;;13.25;11.38;;;13.30;62.60;;;;;;5104338;28;20514;-67
2021/05/08 09:30:23;;;;;;;14.57;11.85;;;13.30;63.40;;;;;;5100054;28;20062;-68
2021/05/08 09:33:02;;;;;;;14.00;11.70;;;13.20;62.80;;;;;;5100213;28;20131;-68
2021/05/08 09:35:34;;;;;;;14.18;11.60;;;13.10;63.60;;;;;;5091764;28;20633;-67
2021/05/08 09:38:13;;;;;;;13.70;12.00;;;13.10;64.20;;;;;;5100841;28;20032;-67
2021/05/08 09:40:43;;;;;;;13.60;10.95;;;13.10;62.90;;;;;;5097303;28;20031;-67
2021/05/08 09:43:13;;;;;;;13.98;11.70;;;13.00;63.70;;;;;;5101797;28;20036;-67
2021/05/08 09:45:41;;;;;;;15.85;12.48;;;13.00;64.20;;;;;;5100238;28;20028;-67
2021/05/08 09:48:28;;;;;;;14.43;12.05;;;13.10;64.90;;;;;;5102371;28;20052;-67
2021/05/08 09:51:25;;;;;;;14.77;12.00;;;13.10;63.40;;;;;;5098186;28;20039;-68
2021/05/08 09:53:53;;;;;;;13.13;11.70;;;13.10;63.70;;;;;;5099269;28;20039;-68
2021/05/08 09:56:38;;;;;;;15.63;11.65;;;13.10;64.00;;;;;;5094291;28;20042;-68
2021/05/08 09:59:23;;;;;;;12.30;10.43;;;13.20;61.60;;;;;;5102303;27;20039;-68
2021/05/08 10:02:04;;;;;;;14.05;11.75;;;13.20;64.50;;;;;;5099201;28;20051;-68
2021/05/08 10:04:51;;;;;;;14.73;11.05;;;13.20;63.60;;;;;;5104714;28;20066;-68
2021/05/08 10:07:22;;;;;;;15.77;11.13;;;13.30;64.30;;;;;;5099032;28;20429;-68
2021/05/08 10:09:49;;;;;;;12.07;10.82;;;13.40;64.40;;;;;;5100440;28;20165;-68
2021/05/08 10:12:17;;;;;;;12.52;9.95;;;13.60;65.40;;;;;;5099785;28;20054;-68
2021/05/08 10:14:44;;;;;;;13.05;10.70;;;13.70;63.30;;;;;;5100666;28;20101;-68
2021/05/08 10:17:12;;;;;;;12.93;11.15;;;14.00;64.20;;;;;;5096041;28;20832;-69
2021/05/08 10:19:40;;;;;;;15.82;11.35;;;14.30;63.20;;;;;;5100839;28;20032;-69
2021/05/08 10:22:10;;;;;;;11.68;9.65;;;14.70;65.30;;;;;;5097781;28;20038;-69
2021/05/08 10:24:38;;;;;;;12.90;11.00;;;15.10;61.70;;;;;;5095384;28;20070;-69
2021/05/08 10:27:05;;;;;;;11.95;9.68;;;15.30;60.30;;;;;;5097657;28;20065;-69
2021/05/08 10:29:40;;;;;;;11.25;8.95;;;15.50;59.90;;;;;;5100166;28;20423;-69
2021/05/08 10:32:09;;;;;;;13.48;10.02;;;15.60;58.60;;;;;;5095823;28;20106;-69
2021/05/08 10:34:37;;;;;;;13.75;9.38;;;15.70;59.80;;;;;;5102305;28;20040;-69
2021/05/08 10:37:13;;;;;;;12.05;9.50;;;15.90;58.80;;;;;;5092474;28;20586;-69
2021/05/08 10:39:51;;;;;;;11.27;8.80;;;16.20;58.40;;;;;;5098375;28;20051;-69
2021/05/08 10:42:44;;;;;;;12.82;9.63;;;16.40;53.40;;;;;;5097473;28;20036;-68
2021/05/08 10:45:19;;;;;;;10.40;8.82;;;16.50;54.70;;;;;;5100446;28;20058;-68
2021/05/08 10:47:58;;;;;;;11.13;8.95;;;16.60;54.90;;;;;;5087954;28;20048;-69
2021/05/08 10:50:37;;;;;;;11.93;8.10;;;16.60;54.00;;;;;;5096752;28;20186;-68
2021/05/08 10:53:09;;;;;;;11.52;8.25;;;16.50;54.40;;;;;;5099241;28;20129;-68
2021/05/08 10:55:51;;;;;;;8.73;7.10;;;16.40;53.60;;;;;;5100654;28;20032;-68
2021/05/08 10:58:17;;;;;;;10.48;7.30;;;16.20;54.80;;;;;;5077914;28;20051;-67
2021/05/08 11:00:49;;;;;;;11.55;8.50;;;16.00;55.30;;;;;;5096032;28;20472;-68
2021/05/08 11:03:19;;;;;;;11.80;7.20;;;15.90;54.20;;;;;;5096101;28;20050;-67
2021/05/08 11:05:53;;;;;;;9.15;7.07;;;15.70;54.20;;;;;;5083408;28;20105;-67
2021/05/08 11:08:25;;;;;;;16.10;14.38;;;15.60;54.70;;;;;;5097830;28;20070;-67
2021/05/08 11:10:58;;;;;;;11.60;8.02;;;15.50;56.00;;;;;;5101936;28;20408;-67
2021/05/08 11:13:50;;;;;;;10.32;6.78;;;15.60;56.00;;;;;;5095158;28;20084;-67
2021/05/08 11:16:25;;;;;;;7.90;6.15;;;15.50;54.50;;;;;;5103313;28;20467;-66
2021/05/08 11:18:52;;;;;;;9.20;6.22;;;15.40;55.30;;;;;;5096095;28;20114;-68
2021/05/08 11:21:18;;;;;;;8.98;6.20;;;15.30;55.70;;;;;;5100767;28;20043;-67
2021/05/08 11:23:57;;;;;;;9.25;5.78;;;15.20;55.40;;;;;;5092721;28;20040;-67
2021/05/08 11:26:27;;;;;;;30.67;27.38;;;15.20;55.40;;;;;;5080778;28;20105;-67
2021/05/08 11:29:03;;;;;;;7.57;6.05;;;15.10;55.90;;;;;;5093467;28;20044;-67
2021/05/08 11:31:36;;;;;;;6.90;6.15;;;15.10;56.00;;;;;;5101218;28;20074;-67
2021/05/08 11:34:15;;;;;;;9.70;5.68;;;15.10;56.70;;;;;;5096491;28;20376;-68
2021/05/08 11:36:47;;;;;;;9.05;5.63;;;15.20;55.40;;;;;;5098978;28;20399;-67
2021/05/08 11:39:16;;;;;;;7.53;6.20;;;15.30;55.50;;;;;;5095337;28;20499;-67
2021/05/08 11:41:43;;;;;;;9.73;5.35;;;15.50;55.70;;;;;;5099618;28;20042;-67
2021/05/08 11:44:17;;;;;;;8.13;5.90;;;15.50;56.20;;;;;;5094105;28;20064;-67
2021/05/08 11:46:50;;;;;;;;;;;15.50;55.50;;;;;;5093119;28;20406;-67
2021/05/08 11:49:26;;;;;;;8.25;5.53;;;15.40;54.70;;;;;;5100022;28;19945;-67
2021/05/08 11:51:52;;;;;;;6.07;4.80;;;15.30;56.40;;;;;;5096288;28;20040;-67
2021/05/08 11:54:18;;;;;;;10.57;5.65;;;15.20;56.10;;;;;;5102757;28;20497;-67
2021/05/08 11:56:44;;;;;;;7.03;4.53;;;15.10;56.30;;;;;;5094632;28;20093;-67
2021/05/08 11:59:10;;;;;;;6.45;4.15;;;15.00;55.50;;;;;;5100605;28;20052;-67
2021/05/08 12:01:35;;;;;;;9.57;8.60;;;14.90;56.50;;;;;;5095285;28;20032;-67
2021/05/08 12:04:05;;;;;;;7.20;4.82;;;14.80;56.00;;;;;;5100201;28;20040;-67
2021/05/08 12:06:31;;;;;;;5.57;4.18;;;14.70;56.80;;;;;;5101505;28;20038;-67
2021/05/08 12:08:56;;;;;;;8.05;3.97;;;14.70;57.70;;;;;;5100498;28;20146;-67
2021/05/08 12:11:24;;;;;;;4.53;3.88;;;14.70;57.70;;;;;;5095550;28;20034;-67
2021/05/08 12:13:50;;;;;;;6.38;3.42;;;14.70;58.00;;;;;;5101275;28;20521;-67
2021/05/08 12:16:16;;;;;;;5.25;3.25;;;14.70;58.30;;;;;;5076998;28;20048;-67
2021/05/08 12:18:43;;;;;;;7.15;3.63;;;14.50;57.60;;;;;;5104344;28;20126;-67
2021/05/08 12:21:13;;;;;;;4.00;3.33;;;14.40;59.20;;;;;;5093547;28;20554;-67
2021/05/08 12:23:40;;;;;;;4.25;3.38;;;14.40;61.20;;;;;;5105956;28;20071;-67
2021/05/08 12:26:08;;;;;;;4.97;3.63;;;14.30;60.90;;;;;;5100489;28;20088;-67
2021/05/08 12:28:39;;;;;;;6.53;3.53;;;14.20;62.00;;;;;;5106634;28;20509;-67
2021/05/08 12:31:24;;;;;;;4.40;3.45;;;14.20;64.10;;;;;;5085154;28;20169;-67
2021/05/08 12:33:52;;;;;;;5.47;3.67;;;14.10;63.90;;;;;;5103669;28;20078;-67
2021/05/08 12:36:21;;;;;;;5.95;3.97;;;13.90;65.60;;;;;;5103464;28;20043;-67
2021/05/08 12:38:47;;;;;;;5.57;3.55;;;13.80;67.90;;;;;;5100719;28;20063;-67
2021/05/08 12:41:30;;;;;;;5.32;3.78;;;13.70;68.70;;;;;;5101402;28;20646;-67
2021/05/08 12:44:07;;;;;;;8.35;4.45;;;13.70;68.70;;;;;;5099278;28;20024;-67
2021/05/08 12:46:56;;;;;;;5.20;3.95;;;13.70;70.50;;;;;;5102325;28;20070;-67